Time;durP1;ratioP1;P1;durP2;ratioP2;P2;SDS_P1;SDS_P2;PMS_P1;PMS_P2;Temp;Humidity;BMP_temperature;BMP_pressure;BME280_temperature;BME280_humidity;BME280_pressure;Samples;Min_cycle;Max_cycle;Signal;HPM_P1;HPM_P2
2022/04/21 00:00:40;;;;;;;3.30;2.42;;;7.80;93.00;;;;;;5051164;28;20378;-80
2022/04/21 00:03:07;;;;;;;2.58;2.38;;;7.80;93.20;;;;;;5038813;28;20025;-80
2022/04/21 00:05:34;;;;;;;2.40;2.05;;;7.70;93.40;;;;;;5043555;28;20419;-80
2022/04/21 00:08:00;;;;;;;3.40;2.50;;;7.80;93.20;;;;;;5048340;28;20043;-80
2022/04/21 00:10:28;;;;;;;7.00;3.35;;;7.90;92.90;;;;;;5050521;28;20025;-80
2022/04/21 00:12:54;;;;;;;3.03;1.90;;;8.00;92.90;;;;;;5048353;28;20040;-80
2022/04/21 00:15:21;;;;;;;3.50;2.60;;;8.00;92.50;;;;;;5040632;28;20493;-80
2022/04/21 00:17:47;;;;;;;2.53;1.95;;;8.00;92.50;;;;;;5049933;28;20034;-80
2022/04/21 00:20:14;;;;;;;3.42;1.98;;;8.00;92.70;;;;;;5041920;28;20037;-80
2022/04/21 00:25:29;;;;;;;2.47;2.20;;;7.60;93.90;;;;;;5045733;28;20038;-80
2022/04/21 00:27:55;;;;;;;2.35;1.83;;;7.30;95.00;;;;;;5050650;28;20033;-80
2022/04/21 00:30:22;;;;;;;3.95;2.47;;;7.20;95.40;;;;;;5046820;28;20481;-80
2022/04/21 00:32:48;;;;;;;10.35;2.53;;;7.20;96.10;;;;;;5046082;28;20048;-81
2022/04/21 00:35:16;;;;;;;4.43;1.90;;;7.10;96.40;;;;;;5056949;28;20394;-80
2022/04/21 00:38:02;;;;;;;5.30;1.85;;;7.00;96.80;;;;;;5044983;28;20045;-82
2022/04/21 00:40:30;;;;;;;3.85;2.53;;;6.90;97.30;;;;;;5050998;28;20048;-79
2022/04/21 00:42:57;;;;;;;2.92;1.80;;;6.90;97.60;;;;;;5050556;28;20041;-79
2022/04/21 00:45:24;;;;;;;5.05;2.15;;;6.80;97.90;;;;;;5048182;28;20041;-79
2022/04/21 00:47:53;;;;;;;2.50;2.30;;;6.70;98.30;;;;;;5049057;28;20033;-79
2022/04/21 00:50:24;;;;;;;4.60;2.42;;;6.70;98.30;;;;;;5050838;28;20481;-79
2022/04/21 00:52:53;;;;;;;3.75;2.67;;;6.60;98.40;;;;;;5032387;28;20057;-79
2022/04/21 00:55:21;;;;;;;2.65;2.42;;;6.60;98.60;;;;;;5047878;28;20045;-80
2022/04/21 00:57:48;;;;;;;9.13;2.67;;;6.60;99.00;;;;;;5049589;28;20033;-80
2022/04/21 01:00:16;;;;;;;2.88;2.53;;;6.70;98.50;;;;;;5050855;28;20041;-79
2022/04/21 01:02:46;;;;;;;3.38;2.63;;;6.70;98.50;;;;;;5049283;28;20385;-79
2022/04/21 01:05:20;;;;;;;2.88;2.63;;;6.70;98.70;;;;;;5047669;28;20056;-80
2022/04/21 01:07:47;;;;;;;4.28;2.17;;;6.70;98.80;;;;;;5045596;28;20033;-79
2022/04/21 01:10:13;;;;;;;2.92;2.00;;;6.60;99.10;;;;;;5045872;28;20018;-79
2022/04/21 01:12:43;;;;;;;3.47;2.65;;;6.50;99.70;;;;;;5048493;28;20051;-79
2022/04/21 01:15:10;;;;;;;3.22;2.85;;;6.40;99.90;;;;;;5045017;28;20025;-80
2022/04/21 01:17:38;;;;;;;2.90;2.70;;;6.40;99.90;;;;;;5043572;28;20032;-79
2022/04/21 01:20:06;;;;;;;3.25;2.45;;;6.40;99.90;;;;;;5048808;28;20053;-80
2022/04/21 01:22:32;;;;;;;2.58;2.38;;;6.40;99.90;;;;;;5051083;28;20045;-79
2022/04/21 01:24:58;;;;;;;2.35;2.15;;;6.30;99.90;;;;;;5045541;28;20374;-79
2022/04/21 01:27:29;;;;;;;3.10;2.72;;;6.20;99.90;;;;;;5047146;28;20049;-79
2022/04/21 01:29:55;;;;;;;3.05;2.50;;;6.10;99.90;;;;;;5049732;28;20025;-79
2022/04/21 01:32:21;;;;;;;4.25;2.85;;;6.10;99.90;;;;;;5051102;28;20037;-81
2022/04/21 01:34:48;;;;;;;2.88;2.25;;;6.10;99.90;;;;;;5042114;28;20029;-79
2022/04/21 01:42:44;;;;;;;2.72;2.42;;;5.80;99.90;;;;;;5065401;28;20397;-79
2022/04/21 01:45:10;;;;;;;2.80;2.25;;;5.70;99.90;;;;;;5045739;28;20040;-79
2022/04/21 01:47:36;;;;;;;2.38;2.17;;;5.50;99.90;;;;;;5049922;28;20029;-79
2022/04/21 01:50:08;;;;;;;3.35;3.05;;;5.40;99.90;;;;;;5049203;28;20060;-79
2022/04/21 01:52:36;;;;;;;3.20;2.90;;;5.20;99.90;;;;;;5050874;28;20044;-79
2022/04/21 01:55:04;;;;;;;3.60;2.95;;;5.00;99.90;;;;;;5049654;28;20033;-82
2022/04/21 01:57:30;;;;;;;3.00;2.70;;;5.00;99.90;;;;;;5053625;28;20410;-81
2022/04/21 01:59:57;;;;;;;2.50;2.30;;;5.00;99.90;;;;;;5054820;28;20040;-80
2022/04/21 02:02:23;;;;;;;2.65;2.45;;;4.80;99.90;;;;;;5052366;28;20028;-79
2022/04/21 02:04:49;;;;;;;3.40;3.10;;;4.70;99.90;;;;;;5050609;28;20025;-80
2022/04/21 02:07:15;;;;;;;9.20;3.35;;;4.60;99.90;;;;;;5051332;28;20029;-79
2022/04/21 02:09:42;;;;;;;3.33;3.08;;;4.60;99.90;;;;;;5053325;28;20470;-80
2022/04/21 02:12:08;;;;;;;5.15;3.72;;;4.60;99.90;;;;;;5052974;28;20041;-79
2022/04/21 02:14:34;;;;;;;4.03;2.90;;;4.80;99.90;;;;;;5050100;28;20059;-79
2022/04/21 02:17:01;;;;;;;6.07;2.63;;;4.70;99.90;;;;;;5049878;28;20029;-80
2022/04/21 02:19:28;;;;;;;3.95;3.55;;;4.60;99.90;;;;;;5052258;28;20029;-79
2022/04/21 02:21:55;;;;;;;3.67;3.38;;;4.70;99.90;;;;;;5049541;28;20494;-79
2022/04/21 02:24:21;;;;;;;4.45;3.55;;;4.80;99.90;;;;;;5051886;28;20044;-79
2022/04/21 02:26:47;;;;;;;5.93;3.65;;;4.70;99.90;;;;;;5048009;28;20386;-80
2022/04/21 02:29:13;;;;;;;3.47;3.10;;;4.70;99.90;;;;;;5050854;28;20041;-79
2022/04/21 02:31:39;;;;;;;7.38;3.78;;;4.60;99.90;;;;;;5052666;28;20037;-79
2022/04/21 02:34:05;;;;;;;4.45;3.35;;;4.50;99.90;;;;;;5051414;28;20240;-81
2022/04/21 02:36:31;;;;;;;5.95;3.53;;;4.60;99.90;;;;;;5047828;28;20029;-79
2022/04/21 02:38:58;;;;;;;3.47;2.78;;;4.70;99.90;;;;;;5052115;28;20056;-79
2022/04/21 02:41:24;;;;;;;3.92;3.33;;;4.60;99.90;;;;;;5048747;28;20055;-80
2022/04/21 02:43:50;;;;;;;3.50;3.25;;;4.60;99.90;;;;;;5048949;28;20037;-79
2022/04/21 02:46:16;;;;;;;6.35;5.05;;;4.70;99.90;;;;;;5048792;28;20037;-79
2022/04/21 02:48:43;;;;;;;6.03;3.63;;;4.70;99.90;;;;;;5047902;28;20033;-79
2022/04/21 02:51:10;;;;;;;5.63;4.20;;;4.70;99.90;;;;;;5047291;28;20033;-79
2022/04/21 02:59:06;;;;;;;4.80;4.40;;;4.90;99.90;;;;;;5046938;28;20189;-79
2022/04/21 03:01:32;;;;;;;6.55;4.10;;;4.90;99.90;;;;;;5049529;28;20037;-79
2022/04/21 03:03:58;;;;;;;5.70;4.25;;;4.90;99.90;;;;;;5047421;28;20033;-79
2022/04/21 03:06:25;;;;;;;5.82;3.80;;;4.80;99.90;;;;;;5042620;28;20056;-79
2022/04/21 03:08:51;;;;;;;5.03;3.90;;;4.70;99.90;;;;;;5051449;28;20051;-79
2022/04/21 03:11:17;;;;;;;6.80;3.95;;;4.70;99.90;;;;;;5052014;28;20040;-79
2022/04/21 03:13:43;;;;;;;4.78;4.15;;;4.70;99.90;;;;;;5051948;28;20040;-78
2022/04/21 03:16:09;;;;;;;3.80;3.40;;;4.60;99.90;;;;;;5046267;28;20025;-78
2022/04/21 03:18:35;;;;;;;4.43;4.05;;;4.50;99.90;;;;;;5048769;28;20028;-79
2022/04/21 03:26:31;;;;;;;4.70;4.25;;;4.30;99.90;;;;;;5044463;28;20390;-80
2022/04/21 03:28:58;;;;;;;5.07;4.22;;;4.30;99.90;;;;;;5062646;28;20037;-79
2022/04/21 03:31:24;;;;;;;5.28;4.88;;;4.30;99.90;;;;;;5063753;28;20037;-80
2022/04/21 03:33:54;;;;;;;6.53;5.88;;;4.40;99.90;;;;;;5052523;28;20032;-79
2022/04/21 03:36:21;;;;;;;9.00;4.80;;;4.30;99.90;;;;;;5054417;28;20063;-78
2022/04/21 03:38:47;;;;;;;5.85;5.25;;;4.30;99.90;;;;;;5043794;28;20061;-80
2022/04/21 03:41:14;;;;;;;4.97;4.57;;;4.30;99.90;;;;;;5050416;28;20041;-79
2022/04/21 03:43:40;;;;;;;5.25;4.75;;;4.20;99.90;;;;;;5044517;28;20033;-79
2022/04/21 03:46:06;;;;;;;5.28;4.55;;;4.10;99.90;;;;;;5043110;28;20347;-79
2022/04/21 03:48:32;;;;;;;7.03;5.28;;;4.00;99.90;;;;;;5051739;28;20483;-79
2022/04/21 03:50:59;;;;;;;7.28;5.78;;;4.10;99.90;;;;;;5051112;28;20044;-79
2022/04/21 03:53:25;;;;;;;6.90;4.88;;;4.30;99.90;;;;;;5049974;28;20041;-79
2022/04/21 03:55:52;;;;;;;6.88;4.78;;;4.40;99.90;;;;;;5047408;28;20040;-80
2022/04/21 03:58:18;;;;;;;5.70;5.20;;;4.40;99.90;;;;;;5065190;28;20033;-79
2022/04/21 04:00:44;;;;;;;6.43;5.88;;;4.60;99.90;;;;;;5046216;28;20025;-79
2022/04/21 04:03:11;;;;;;;7.75;5.57;;;4.70;99.90;;;;;;5046135;28;20041;-79
2022/04/21 04:05:37;;;;;;;10.27;9.27;;;4.90;99.90;;;;;;5048389;28;20041;-79
2022/04/21 04:10:52;;;;;;;11.70;5.55;;;5.10;99.90;;;;;;5047926;28;20036;-80
2022/04/21 04:13:25;;;;;;;5.90;4.95;;;5.10;99.90;;;;;;5049895;28;20049;-78
2022/04/21 04:15:52;;;;;;;6.43;5.80;;;5.10;99.90;;;;;;5045540;28;20041;-79
2022/04/21 04:18:22;;;;;;;10.82;7.10;;;5.10;99.90;;;;;;5043249;28;20059;-79
2022/04/21 04:20:49;;;;;;;7.95;7.15;;;5.10;99.90;;;;;;5051579;28;20048;-80
2022/04/21 04:23:19;;;;;;;7.53;6.78;;;5.10;99.90;;;;;;5043407;28;20385;-79
2022/04/21 04:25:46;;;;;;;9.20;6.57;;;5.00;99.90;;;;;;5046794;28;20025;-80
2022/04/21 04:28:13;;;;;;;5.30;4.80;;;5.00;99.90;;;;;;5049899;28;20029;-79
2022/04/21 04:30:40;;;;;;;5.63;5.05;;;5.00;99.90;;;;;;5048102;28;20029;-79
2022/04/21 04:33:07;;;;;;;5.45;4.95;;;4.90;99.90;;;;;;5046656;28;20048;-78
2022/04/21 04:35:33;;;;;;;9.43;4.63;;;5.00;99.90;;;;;;5031269;28;20037;-78
2022/04/21 04:37:59;;;;;;;7.75;6.18;;;5.00;99.90;;;;;;5045306;28;20044;-79
2022/04/21 04:40:26;;;;;;;6.75;5.07;;;5.00;99.90;;;;;;5044933;28;20037;-79
2022/04/21 04:42:55;;;;;;;6.32;5.22;;;4.90;99.90;;;;;;5047197;28;20414;-80
2022/04/21 04:48:07;;;;;;;5.93;5.28;;;5.00;99.90;;;;;;5047863;28;20040;-80
2022/04/21 04:50:33;;;;;;;5.70;5.20;;;4.90;99.90;;;;;;5043185;28;20550;-80
2022/04/21 04:53:01;;;;;;;6.22;4.75;;;4.90;99.90;;;;;;5059734;28;20060;-78
2022/04/21 04:55:27;;;;;;;5.60;4.60;;;4.90;99.90;;;;;;5049246;28;20040;-79
2022/04/21 04:57:53;;;;;;;5.45;4.95;;;4.80;99.90;;;;;;5028586;28;20033;-79
2022/04/21 05:00:20;;;;;;;6.57;4.55;;;4.80;99.90;;;;;;5040202;28;20037;-78
2022/04/21 05:02:47;;;;;;;7.60;5.18;;;4.80;99.90;;;;;;5045088;28;20044;-79
2022/04/21 05:05:15;;;;;;;6.15;5.55;;;4.80;99.90;;;;;;5043621;28;20029;-79
2022/04/21 05:07:44;;;;;;;6.18;5.60;;;4.80;99.90;;;;;;5050495;28;20033;-79
2022/04/21 05:10:17;;;;;;;7.30;4.72;;;4.90;99.90;;;;;;5047122;28;20036;-80
2022/04/21 05:12:45;;;;;;;5.53;5.00;;;5.10;99.90;;;;;;5045332;28;20048;-79
2022/04/21 05:15:14;;;;;;;7.18;5.53;;;5.70;99.90;;;;;;5043528;28;20347;-79
2022/04/21 05:17:42;;;;;;;6.22;4.32;;;6.30;99.90;;;;;;5049826;28;20044;-79
2022/04/21 05:20:11;;;;;;;6.07;4.28;;;6.60;99.90;;;;;;5049829;28;20033;-79
2022/04/21 05:22:40;;;;;;;6.45;4.82;;;7.00;99.90;;;;;;5049659;28;20036;-80
2022/04/21 05:25:11;;;;;;;20.63;4.43;;;8.10;99.90;;;;;;5052653;28;20377;-80
2022/04/21 05:27:43;;;;;;;4.03;3.63;;;9.10;97.50;;;;;;5049931;28;20021;-80
2022/04/21 05:32:59;;;;;;;3.47;2.70;;;10.10;92.90;;;;;;5049370;28;20366;-80
2022/04/21 05:35:27;;;;;;;3.20;2.65;;;10.30;91.70;;;;;;5048552;28;20044;-80
2022/04/21 05:37:58;;;;;;;3.80;3.08;;;10.50;91.40;;;;;;5048356;28;20061;-81
2022/04/21 05:40:25;;;;;;;5.47;3.25;;;10.70;90.70;;;;;;5048688;28;20049;-80
2022/04/21 05:42:54;;;;;;;4.53;3.20;;;10.90;90.20;;;;;;5054116;28;20394;-81
2022/04/21 05:45:21;;;;;;;5.80;5.25;;;11.10;89.40;;;;;;5054810;28;20036;-80
2022/04/21 05:47:48;;;;;;;4.97;4.45;;;11.60;86.30;;;;;;5048661;28;20454;-81
2022/04/21 05:50:15;;;;;;;5.75;4.90;;;12.00;84.70;;;;;;5041028;28;20389;-81
2022/04/21 05:52:43;;;;;;;7.78;3.17;;;12.60;81.70;;;;;;5057718;28;20036;-81
2022/04/21 05:55:10;;;;;;;4.90;3.38;;;12.50;80.50;;;;;;5048749;28;20497;-81
2022/04/21 05:57:40;;;;;;;4.55;3.15;;;13.20;78.30;;;;;;5043731;28;20025;-82
2022/04/21 06:00:07;;;;;;;3.95;3.30;;;14.00;74.60;;;;;;5047910;28;20055;-83
2022/04/21 06:02:38;;;;;;;3.88;3.58;;;14.30;72.60;;;;;;5052171;28;20052;-85
2022/04/21 06:05:05;;;;;;;3.45;3.10;;;14.60;68.50;;;;;;5048915;28;20493;-85
2022/04/21 06:07:31;;;;;;;4.07;3.00;;;14.40;69.30;;;;;;5050517;28;20029;-85
2022/04/21 06:09:58;;;;;;;5.78;2.90;;;14.30;69.40;;;;;;5049609;28;20367;-85
2022/04/21 06:12:25;;;;;;;5.70;3.17;;;14.00;69.30;;;;;;5053069;28;20471;-85
2022/04/21 06:14:52;;;;;;;5.13;3.45;;;13.40;72.20;;;;;;5048377;28;20033;-85
2022/04/21 06:17:18;;;;;;;5.00;3.83;;;13.80;70.70;;;;;;5049705;28;20398;-85
2022/04/21 06:19:44;;;;;;;4.97;2.95;;;13.60;70.80;;;;;;5048484;28;20477;-85
2022/04/21 06:22:11;;;;;;;3.60;2.92;;;13.30;72.30;;;;;;5051963;28;20494;-84
2022/04/21 06:24:38;;;;;;;4.13;3.03;;;13.30;71.60;;;;;;5051235;28;20052;-84
2022/04/21 06:27:04;;;;;;;4.97;2.75;;;12.70;73.30;;;;;;5047163;28;20026;-84
2022/04/21 06:29:31;;;;;;;4.68;3.72;;;12.20;74.60;;;;;;5050413;28;20072;-85
2022/04/21 06:31:57;;;;;;;6.82;3.78;;;11.70;77.60;;;;;;5051550;28;20025;-85
2022/04/21 06:34:23;;;;;;;5.63;4.43;;;11.20;80.50;;;;;;5050901;28;20033;-85
2022/04/21 06:36:50;;;;;;;12.90;4.53;;;11.20;82.90;;;;;;5046892;28;20037;-84
2022/04/21 06:39:16;;;;;;;5.10;4.53;;;11.40;82.40;;;;;;5049563;28;20414;-85
2022/04/21 06:41:43;;;;;;;3.95;3.53;;;11.10;83.50;;;;;;5053036;28;20028;-84
2022/04/21 06:50:01;;;;;;;4.97;3.90;;;11.10;84.40;;;;;;5001889;28;21688;-84
2022/04/21 06:52:27;;;;;;;4.85;4.20;;;11.20;84.60;;;;;;5008430;28;20042;-85
2022/04/21 06:54:54;;;;;;;4.70;4.18;;;11.00;85.10;;;;;;5026360;28;20052;-86
2022/04/21 06:57:22;;;;;;;4.13;3.63;;;10.90;85.40;;;;;;5052256;28;20033;-85
2022/04/21 06:59:48;;;;;;;5.40;4.40;;;11.10;85.10;;;;;;5051779;28;20049;-86
2022/04/21 07:02:14;;;;;;;4.32;3.83;;;11.50;83.60;;;;;;5050223;28;20402;-84
2022/04/21 07:04:41;;;;;;;4.25;3.80;;;11.30;84.40;;;;;;5042585;28;20044;-86
2022/04/21 07:07:07;;;;;;;6.60;4.22;;;11.30;84.60;;;;;;5049147;28;20055;-84
2022/04/21 07:09:33;;;;;;;4.15;3.75;;;11.30;84.40;;;;;;5042151;28;20033;-85
2022/04/21 07:11:59;;;;;;;6.75;3.83;;;11.30;85.70;;;;;;5046775;28;20034;-83
2022/04/21 07:14:26;;;;;;;6.60;4.05;;;11.30;85.60;;;;;;5050451;28;20052;-83
2022/04/21 07:16:52;;;;;;;3.95;3.60;;;11.30;85.50;;;;;;5050454;28;20036;-82
2022/04/21 07:19:18;;;;;;;4.75;3.97;;;11.20;85.50;;;;;;5044080;28;20489;-83
2022/04/21 07:21:44;;;;;;;4.80;4.15;;;11.20;85.60;;;;;;5052696;28;20047;-83
2022/04/21 07:24:10;;;;;;;3.95;3.47;;;11.20;85.30;;;;;;5046915;28;20045;-86
2022/04/21 07:26:37;;;;;;;5.65;4.20;;;11.20;85.00;;;;;;5046231;28;20029;-89
2022/04/21 07:29:04;;;;;;;5.85;4.50;;;11.30;85.30;;;;;;5050495;28;20045;-84
2022/04/21 07:31:31;;;;;;;6.47;3.95;;;11.50;85.00;;;;;;5045292;28;20378;-83
2022/04/21 07:33:57;;;;;;;5.90;5.05;;;11.70;84.00;;;;;;5046410;28;20398;-88
2022/04/21 07:36:23;;;;;;;7.03;4.72;;;11.50;84.40;;;;;;5049961;28;20044;-85
2022/04/21 07:38:50;;;;;;;5.75;3.50;;;11.30;84.30;;;;;;5048434;28;20045;-85
2022/04/21 07:41:17;;;;;;;7.95;4.88;;;11.30;84.40;;;;;;5048001;28;20489;-86
2022/04/21 07:43:44;;;;;;;4.57;4.18;;;11.30;83.90;;;;;;5060087;28;20033;-83
2022/04/21 07:46:10;;;;;;;4.75;3.85;;;11.40;83.90;;;;;;5063204;28;20032;-87
2022/04/21 07:51:23;;;;;;;4.40;3.42;;;11.40;83.80;;;;;;5051867;28;20043;-85
2022/04/21 07:53:49;;;;;;;5.20;3.83;;;11.30;83.70;;;;;;5059884;28;20328;-84
2022/04/21 07:56:15;;;;;;;5.63;3.90;;;11.30;84.50;;;;;;5054879;28;20043;-87
2022/04/21 07:58:41;;;;;;;5.20;3.95;;;11.30;83.40;;;;;;5051697;28;20044;-86
2022/04/21 08:01:07;;;;;;;5.22;3.95;;;11.30;83.60;;;;;;5052981;28;20041;-87
2022/04/21 08:03:37;;;;;;;5.43;3.53;;;11.30;83.80;;;;;;5044099;28;20386;-86
2022/04/21 08:06:06;;;;;;;5.07;3.58;;;11.40;83.60;;;;;;5050594;28;20033;-82
2022/04/21 08:08:32;;;;;;;4.43;4.03;;;11.30;83.20;;;;;;5055184;28;20047;-88
2022/04/21 08:10:59;;;;;;;5.50;3.67;;;11.50;83.30;;;;;;5047513;28;20025;-86
2022/04/21 08:13:28;;;;;;;4.45;4.05;;;11.50;83.10;;;;;;5053220;28;20134;-84
2022/04/21 08:15:54;;;;;;;3.75;3.33;;;11.40;82.80;;;;;;5050526;28;20493;-89
2022/04/21 08:18:20;;;;;;;3.97;3.65;;;11.40;83.10;;;;;;5048039;28;20029;-84
2022/04/21 08:20:48;;;;;;;6.13;4.78;;;11.50;83.50;;;;;;5048816;28;20036;-85
2022/04/21 08:23:15;;;;;;;5.82;3.95;;;11.80;83.30;;;;;;5048561;28;20040;-84
2022/04/21 08:33:58;;;;;;;5.30;4.38;;;11.90;81.30;;;;;;5061569;28;20049;-85
2022/04/21 08:36:25;;;;;;;4.05;2.90;;;11.90;81.70;;;;;;5063061;28;20025;-84
2022/04/21 08:38:51;;;;;;;4.75;3.75;;;11.70;81.60;;;;;;5057934;28;20048;-86
2022/04/21 08:41:18;;;;;;;5.03;3.50;;;12.10;81.20;;;;;;5050741;28;20045;-85
2022/04/21 08:43:46;;;;;;;12.30;4.32;;;12.30;81.00;;;;;;5044450;28;20040;-85
2022/04/21 08:46:20;;;;;;;3.67;3.08;;;12.60;79.70;;;;;;5048204;28;20030;-88
2022/04/21 08:48:50;;;;;;;5.95;3.38;;;12.90;78.20;;;;;;5048374;28;20029;-87
2022/04/21 08:51:17;;;;;;;8.77;3.97;;;12.90;77.90;;;;;;5048886;28;20037;-82
2022/04/21 08:53:44;;;;;;;3.63;3.28;;;13.10;77.00;;;;;;5049299;28;20033;-86
2022/04/21 08:56:11;;;;;;;4.13;3.22;;;13.20;76.30;;;;;;5050201;28;20406;-82
2022/04/21 08:58:37;;;;;;;4.57;3.75;;;13.60;74.80;;;;;;5053486;28;20025;-88
2022/04/21 09:01:04;;;;;;;8.15;3.30;;;13.90;73.00;;;;;;5054371;28;20045;-86
2022/04/21 09:03:33;;;;;;;8.90;3.70;;;14.10;72.40;;;;;;5052148;28;20033;-89
2022/04/21 09:06:00;;;;;;;6.15;3.42;;;13.90;70.80;;;;;;5052894;28;20143;-88
2022/04/21 09:08:26;;;;;;;4.15;3.75;;;14.00;71.10;;;;;;5056696;28;20041;-89
2022/04/21 09:11:22;;;;;;;4.15;3.30;;;13.80;71.60;;;;;;5055465;28;20469;-85
2022/04/21 09:13:58;;;;;;;6.28;3.17;;;13.90;71.40;;;;;;5029228;28;20053;-87
2022/04/21 09:16:34;;;;;;;4.63;3.38;;;14.20;71.80;;;;;;5052252;28;20486;-87
2022/04/21 09:19:03;;;;;;;3.92;3.35;;;14.00;71.20;;;;;;5051323;28;20036;-85
2022/04/21 09:21:37;;;;;;;3.72;3.05;;;14.50;68.50;;;;;;5054581;28;20097;-88
2022/04/21 09:24:19;;;;;;;3.30;3.00;;;14.40;68.80;;;;;;5052270;28;20048;-87
2022/04/21 09:26:46;;;;;;;6.70;3.65;;;14.10;69.00;;;;;;5051072;28;20040;-86
2022/04/21 09:29:31;;;;;;;3.88;3.33;;;14.20;68.90;;;;;;5050241;28;20036;-86
2022/04/21 09:31:59;;;;;;;3.63;3.05;;;14.20;68.70;;;;;;5049806;28;20036;-87
2022/04/21 09:34:25;;;;;;;4.25;3.42;;;14.40;69.00;;;;;;5046700;28;20048;-83
2022/04/21 09:36:57;;;;;;;5.43;2.85;;;14.90;67.20;;;;;;5055445;28;20037;-85
2022/04/21 09:39:23;;;;;;;4.07;3.30;;;15.40;66.50;;;;;;5049413;28;20037;-84
2022/04/21 09:41:53;;;;;;;4.63;3.05;;;16.60;63.50;;;;;;5053149;28;20052;-86
2022/04/21 09:47:06;;;;;;;3.95;2.90;;;16.90;61.40;;;;;;5060703;28;20040;-87
2022/04/21 09:49:43;;;;;;;3.58;3.28;;;17.30;58.30;;;;;;5053178;28;20029;-84
2022/04/21 09:52:10;;;;;;;4.25;3.08;;;16.50;59.30;;;;;;5050139;28;20462;-88
2022/04/21 09:54:36;;;;;;;7.05;3.65;;;16.10;60.90;;;;;;5048340;28;20041;-86
2022/04/21 09:57:04;;;;;;;3.65;2.78;;;15.80;60.70;;;;;;5052638;28;20025;-83
2022/04/21 09:59:35;;;;;;;3.90;3.20;;;15.40;61.10;;;;;;5058228;28;20037;-88
2022/04/21 10:02:03;;;;;;;5.35;2.88;;;15.60;61.70;;;;;;5054208;28;20040;-88
2022/04/21 10:04:30;;;;;;;4.03;2.97;;;15.80;61.30;;;;;;5055886;28;20438;-82
2022/04/21 10:06:57;;;;;;;3.25;2.67;;;16.20;60.00;;;;;;5049831;28;20049;-85
2022/04/21 10:09:25;;;;;;;4.18;2.90;;;16.10;60.70;;;;;;5048608;28;20039;-85
2022/04/21 10:11:52;;;;;;;3.40;3.00;;;16.10;60.20;;;;;;5052399;28;20037;-88
2022/04/21 10:14:19;;;;;;;4.05;3.63;;;15.80;60.10;;;;;;5051480;28;20037;-88
2022/04/21 10:16:45;;;;;;;3.33;3.03;;;15.20;60.90;;;;;;5048354;28;20041;-91
2022/04/21 10:19:13;;;;;;;4.90;3.55;;;14.70;61.90;;;;;;5054780;28;20450;-94
2022/04/21 10:21:55;;;;;;;4.18;3.20;;;15.00;61.90;;;;;;5055982;28;20044;-87
2022/04/21 10:24:26;;;;;;;3.20;2.88;;;15.30;60.60;;;;;;5051819;28;20051;-85
2022/04/21 10:26:53;;;;;;;3.20;2.90;;;16.00;61.00;;;;;;5050627;28;20036;-84
2022/04/21 10:29:23;;;;;;;4.38;3.05;;;16.00;59.10;;;;;;5053742;28;20036;-85
2022/04/21 10:32:03;;;;;;;2.87;2.43;;;15.50;59.90;;;;;;5055185;28;20406;-92
2022/04/21 10:34:32;;;;;;;3.38;2.97;;;15.80;60.30;;;;;;5053157;28;20029;-85
2022/04/21 10:37:21;;;;;;;4.57;2.92;;;15.60;59.90;;;;;;5047923;28;20066;-85
2022/04/21 10:40:07;;;;;;;4.47;3.00;;;15.60;59.80;;;;;;5037686;28;20053;-91
2022/04/21 10:42:52;;;;;;;3.85;3.05;;;15.60;60.50;;;;;;5049861;28;20052;-90
2022/04/21 10:45:26;;;;;;;3.47;2.72;;;15.80;59.50;;;;;;5048319;28;20036;-93
2022/04/21 10:48:12;;;;;;;4.03;2.72;;;15.90;59.70;;;;;;5056439;28;20025;-87
2022/04/21 10:50:40;;;;;;;3.17;2.88;;;16.00;58.30;;;;;;5042056;28;20037;-91
2022/04/21 10:58:47;;;;;;;3.42;2.45;;;16.40;58.20;;;;;;5050313;28;20033;-90
2022/04/21 11:01:19;;;;;;;2.75;2.13;;;16.10;58.30;;;;;;5054449;28;20382;-89
2022/04/21 11:04:04;;;;;;;7.43;2.70;;;16.50;58.80;;;;;;5051424;28;20043;-86
2022/04/21 11:06:48;;;;;;;2.80;2.45;;;16.40;58.10;;;;;;5050915;28;20029;-88
2022/04/21 11:09:35;;;;;;;4.70;2.70;;;16.00;58.40;;;;;;5050189;28;20056;-91
2022/04/21 11:12:04;;;;;;;3.13;2.83;;;16.10;59.10;;;;;;5054343;28;20040;-91
2022/04/21 11:14:36;;;;;;;2.80;2.13;;;15.90;58.60;;;;;;5050687;28;20037;-88
2022/04/21 11:17:04;;;;;;;2.85;1.88;;;15.80;59.20;;;;;;5054181;28;20048;-90
2022/04/21 11:19:35;;;;;;;2.63;2.08;;;16.10;59.10;;;;;;5048213;28;20033;-86
2022/04/21 11:22:06;;;;;;;2.17;1.85;;;16.40;58.90;;;;;;5051452;28;20051;-83
2022/04/21 11:25:03;;;;;;;5.28;2.50;;;16.60;58.20;;;;;;5050104;28;20033;-89
2022/04/21 11:27:31;;;;;;;4.20;2.67;;;16.80;57.20;;;;;;5046774;28;20040;-87
2022/04/21 11:29:59;;;;;;;3.88;2.15;;;16.80;57.60;;;;;;5051779;28;20045;-85
2022/04/21 11:32:25;;;;;;;3.60;2.22;;;16.90;56.60;;;;;;5049731;28;20040;-89
2022/04/21 11:35:03;;;;;;;3.65;2.40;;;17.20;57.30;;;;;;5048021;28;20040;-83
2022/04/21 11:37:54;;;;;;;3.53;2.30;;;17.10;56.80;;;;;;5048459;28;20061;-87
2022/04/21 11:40:21;;;;;;;;;;;17.10;56.20;;;;;;5053908;28;20033;-95
2022/04/21 11:42:49;;;;;;;1.98;1.77;;;16.90;56.20;;;;;;5050247;28;19961;-85
2022/04/21 11:45:26;;;;;;;5.10;3.17;;;16.60;56.30;;;;;;5050300;28;20394;-89
2022/04/21 11:47:53;;;;;;;3.53;2.38;;;16.00;56.90;;;;;;5049681;28;20029;-84
2022/04/21 11:50:24;;;;;;;3.83;2.22;;;16.00;57.50;;;;;;5050141;28;20049;-90
2022/04/21 11:52:54;;;;;;;3.63;2.35;;;16.50;57.30;;;;;;5053220;28;20029;-82
2022/04/21 11:55:26;;;;;;;3.87;2.77;;;16.30;56.90;;;;;;5050134;28;20036;-87
2022/04/21 11:57:53;;;;;;;2.42;1.90;;;16.80;57.00;;;;;;5059350;28;20033;-81
2022/04/21 12:08:38;;;;;;;2.13;1.50;;;17.20;55.20;;;;;;5051171;28;20048;-92
2022/04/21 12:11:09;;;;;;;1.40;1.27;;;17.20;55.00;;;;;;5049355;28;20100;-88
2022/04/21 12:13:35;;;;;;;;;;;17.20;54.10;;;;;;5053692;28;20394;-87
2022/04/21 12:16:01;;;;;;;7.32;1.42;;;17.10;53.40;;;;;;5049963;28;19923;-93
2022/04/21 12:18:45;;;;;;;2.03;1.50;;;16.50;54.10;;;;;;5044098;28;20032;-87
2022/04/21 12:21:11;;;;;;;2.78;1.90;;;16.90;54.20;;;;;;5042475;28;20025;-89
2022/04/21 12:23:38;;;;;;;2.15;1.73;;;16.70;55.00;;;;;;5049204;28;20040;-85
2022/04/21 12:26:07;;;;;;;4.43;1.90;;;16.70;55.50;;;;;;5047704;28;20463;-87
2022/04/21 12:28:47;;;;;;;4.72;1.55;;;16.90;55.60;;;;;;5049865;28;20032;-91
2022/04/21 12:31:18;;;;;;;2.20;2.00;;;16.80;55.80;;;;;;5046089;28;20249;-90
2022/04/21 12:33:44;;;;;;;6.22;1.90;;;16.70;55.60;;;;;;5047865;28;20045;-87
2022/04/21 12:36:10;;;;;;;2.47;1.80;;;16.40;55.90;;;;;;5044604;28;20025;-87
2022/04/21 12:38:56;;;;;;;2.90;2.10;;;16.30;55.00;;;;;;5049029;28;20041;-86
2022/04/21 12:41:23;;;;;;;2.00;1.25;;;16.40;55.60;;;;;;5046661;28;20044;-90
2022/04/21 12:43:50;;;;;;;2.28;1.90;;;16.60;55.50;;;;;;5045795;28;20466;-75
2022/04/21 12:46:16;;;;;;;4.88;2.00;;;16.40;55.80;;;;;;5043243;28;20036;-76
2022/04/21 12:48:49;;;;;;;5.28;2.35;;;16.20;56.40;;;;;;5047654;28;20836;-75
2022/04/21 12:51:22;;;;;;;2.15;1.90;;;16.10;56.70;;;;;;5044821;28;20478;-76
2022/04/21 12:53:57;;;;;;;3.13;2.30;;;16.60;56.00;;;;;;5047944;28;20053;-77
2022/04/21 12:56:37;;;;;;;2.25;1.55;;;16.60;55.40;;;;;;5054528;28;20169;-76
2022/04/21 12:59:03;;;;;;;2.63;1.90;;;17.20;55.40;;;;;;5051991;28;20044;-78
2022/04/21 13:01:30;;;;;;;2.45;1.58;;;16.80;54.10;;;;;;5043560;28;20048;-78
2022/04/21 13:04:02;;;;;;;2.30;1.80;;;17.00;55.20;;;;;;5049382;28;20048;-77
2022/04/21 13:06:30;;;;;;;1.92;1.48;;;16.70;55.10;;;;;;5045956;28;20496;-78
2022/04/21 13:08:57;;;;;;;2.65;1.45;;;16.90;55.00;;;;;;5047395;28;20059;-77
2022/04/21 13:11:24;;;;;;;2.40;1.58;;;16.80;55.30;;;;;;5045795;28;20044;-76
2022/04/21 13:13:52;;;;;;;5.53;1.80;;;16.50;55.20;;;;;;5043195;28;20056;-77
2022/04/21 13:16:18;;;;;;;3.88;1.90;;;16.40;55.20;;;;;;5047734;28;20049;-77
2022/04/21 13:18:45;;;;;;;6.72;1.50;;;16.30;55.40;;;;;;5050580;28;20033;-77
2022/04/21 13:23:56;;;;;;;1.52;1.40;;;16.00;55.00;;;;;;5052657;28;20045;-78
2022/04/21 13:26:28;;;;;;;1.48;1.23;;;16.10;55.30;;;;;;5045547;28;20040;-85
2022/04/21 13:28:56;;;;;;;1.92;1.75;;;16.10;55.10;;;;;;5050245;28;20048;-82
2022/04/21 13:34:09;;;;;;;3.42;1.92;;;15.90;55.20;;;;;;5047291;28;20044;-82
2022/04/21 13:36:38;;;;;;;4.10;1.85;;;16.00;55.40;;;;;;5046341;28;20044;-84
2022/04/21 13:39:05;;;;;;;1.60;1.13;;;16.50;55.00;;;;;;5051754;28;20048;-82
2022/04/21 13:41:31;;;;;;;4.50;1.27;;;16.60;53.70;;;;;;5047555;28;20393;-83
2022/04/21 13:43:58;;;;;;;1.42;1.13;;;16.50;53.80;;;;;;5047929;28;20537;-83
2022/04/21 13:46:24;;;;;;;3.20;1.58;;;16.80;53.70;;;;;;5049150;28;20041;-88
2022/04/21 13:48:51;;;;;;;2.17;1.65;;;17.30;52.80;;;;;;5045163;28;20041;-82
2022/04/21 13:51:17;;;;;;;1.98;1.25;;;17.10;53.10;;;;;;5037093;28;20040;-85
2022/04/21 13:53:43;;;;;;;2.78;1.60;;;17.00;53.70;;;;;;5055209;28;20041;-82
2022/04/21 13:56:09;;;;;;;3.00;1.45;;;17.00;53.50;;;;;;5045198;28;20471;-82
2022/04/21 13:58:35;;;;;;;1.67;0.88;;;16.60;54.20;;;;;;5054494;28;20037;-82
2022/04/21 14:01:03;;;;;;;3.13;1.33;;;16.80;54.00;;;;;;5050600;28;20036;-83
2022/04/21 14:03:32;;;;;;;2.53;1.55;;;16.80;54.10;;;;;;5050052;28;20037;-82